Terminal Aerodrome Forecast
Issued by NWS Northern Indiana

Home | Current Version | Previous Version | Graphics & Text | Print | Product List | Glossary On
Versions: 1 2 3 4 5 6 7 8 9 10 11 12 13 14
000
FTUS43 KIWX 012320
TAFFWA
TAF
KFWA 012320Z 0200/0224 25011KT P6SM SCT020 OVC035
      TEMPO 0200/0204 P6SM -RASN OVC020
     FM020400 25008KT P6SM OVC025
     FM021600 28013KT P6SM OVC025
     FM022100 28013KT P6SM OVC035=

USA.gov is the U.S. government's official web portal to all federal, state and local government web resources and services.